Time;durP1;ratioP1;P1;durP2;ratioP2;P2;SDS_P1;SDS_P2;PMS_P1;PMS_P2;Temp;Humidity;BMP_temperature;BMP_pressure;BME280_temperature;BME280_humidity;BME280_pressure;Samples;Min_cycle;Max_cycle;Signal;HPM_P1;HPM_P2
2021/01/23 00:00:35;;;;;;;21.35;8.52;;;;;;;;;;4983723;28;20030;-64
2021/01/23 00:03:05;;;;;;;26.77;8.98;;;;;;;;;;4984402;28;20034;-64
2021/01/23 00:05:32;;;;;;;22.67;9.40;;;;;;;;;;4979755;28;20169;-64
2021/01/23 00:08:01;;;;;;;23.00;8.73;;;;;;;;;;4983304;28;20048;-64
2021/01/23 00:10:30;;;;;;;21.80;8.75;;;;;;;;;;4978354;28;20312;-63
2021/01/23 00:12:58;;;;;;;30.52;9.90;;;;;;;;;;4981582;28;20038;-64
2021/01/23 00:15:26;;;;;;;26.35;11.48;;;;;;;;;;4959964;28;20093;-64
2021/01/23 00:17:51;;;;;;;21.92;9.27;;;;;;;;;;4960319;28;20022;-63
2021/01/23 00:20:19;;;;;;;17.08;8.93;;;;;;;;;;4958645;28;20267;-63
2021/01/23 00:22:45;;;;;;;21.23;9.70;;;;;;;;;;4979102;28;20323;-64
2021/01/23 00:25:46;;;;;;;21.67;10.40;;;;;;;;;;4984859;28;20448;-64
2021/01/23 00:28:12;;;;;;;25.13;9.80;;;;;;;;;;4980772;28;20303;-63
2021/01/23 00:30:39;;;;;;;20.20;10.38;;;;;;;;;;4966456;28;20034;-63
2021/01/23 00:33:07;;;;;;;23.77;10.60;;;;;;;;;;4964402;28;20033;-65
2021/01/23 00:35:33;;;;;;;22.98;10.80;;;;;;;;;;4981334;28;20474;-63
2021/01/23 00:38:01;;;;;;;27.67;11.80;;;;;;;;;;4969134;28;20057;-63
2021/01/23 00:40:26;;;;;;;23.13;10.82;;;;;;;;;;4957831;28;20533;-63
2021/01/23 00:42:52;;;;;;;28.10;11.15;;;;;;;;;;4978374;28;20064;-64
2021/01/23 00:45:20;;;;;;;22.30;11.43;;;;;;;;;;4983657;28;20050;-63
2021/01/23 00:47:45;;;;;;;29.02;12.45;;;;;;;;;;4980925;28;20474;-63
2021/01/23 00:50:13;;;;;;;33.83;12.48;;;;;;;;;;4981619;28;20045;-63
2021/01/23 00:52:38;;;;;;;30.00;12.07;;;;;;;;;;4983618;28;20103;-62
2021/01/23 00:55:06;;;;;;;23.23;12.30;;;;;;;;;;4969823;28;20053;-62
2021/01/23 00:57:32;;;;;;;25.80;11.65;;;;;;;;;;4984228;28;20030;-63
2021/01/23 01:00:02;;;;;;;37.55;12.80;;;;;;;;;;4986354;28;20046;-63
2021/01/23 01:02:28;;;;;;;26.58;12.20;;;;;;;;;;4984594;28;20045;-62
2021/01/23 01:04:53;;;;;;;31.30;12.43;;;;;;;;;;4986075;28;20194;-62
2021/01/23 01:07:24;;;;;;;30.52;12.18;;;;;;;;;;4967323;28;20512;-64
2021/01/23 01:09:52;;;;;;;43.15;13.10;;;;;;;;;;4987269;28;20366;-63
2021/01/23 01:12:19;;;;;;;29.58;13.18;;;;;;;;;;4973449;28;20510;-62
2021/01/23 01:14:48;;;;;;;28.88;12.25;;;;;;;;;;4985121;28;20121;-62
2021/01/23 01:17:14;;;;;;;26.63;12.52;;;;;;;;;;4988578;28;20045;-62
2021/01/23 01:19:41;;;;;;;29.77;12.98;;;;;;;;;;4961274;28;20113;-62
2021/01/23 01:22:07;;;;;;;31.58;14.43;;;;;;;;;;4984059;28;20497;-62
2021/01/23 01:24:35;;;;;;;31.17;13.10;;;;;;;;;;4970986;28;20070;-61
2021/01/23 01:27:01;;;;;;;33.08;13.77;;;;;;;;;;4988319;28;20899;-62
2021/01/23 01:29:29;;;;;;;31.25;12.18;;;;;;;;;;4975498;28;20158;-62
2021/01/23 01:32:02;;;;;;;38.45;13.85;;;;;;;;;;4985236;28;20666;-63
2021/01/23 01:34:32;;;;;;;36.50;12.48;;;;;;;;;;4969677;28;20599;-63
2021/01/23 01:36:58;;;;;;;33.63;13.77;;;;;;;;;;4988612;28;20493;-62
2021/01/23 01:39:26;;;;;;;28.88;13.43;;;;;;;;;;4979123;28;20025;-61
2021/01/23 01:41:54;;;;;;;36.58;13.25;;;;;;;;;;4983674;28;20037;-63
2021/01/23 01:44:24;;;;;;;36.15;15.23;;;;;;;;;;4987181;28;20044;-63
2021/01/23 01:46:50;;;;;;;36.55;13.68;;;;;;;;;;4987237;28;20446;-62
2021/01/23 01:49:20;;;;;;;34.75;13.95;;;;;;;;;;4965749;28;20037;-62
2021/01/23 01:51:50;;;;;;;30.33;13.70;;;;;;;;;;4983708;28;20029;-62
2021/01/23 01:54:17;;;;;;;33.15;14.82;;;;;;;;;;4985792;28;20064;-61
2021/01/23 01:56:43;;;;;;;36.22;15.75;;;;;;;;;;4980537;28;20060;-63
2021/01/23 01:59:13;;;;;;;40.65;17.75;;;;;;;;;;4984999;28;20417;-62
2021/01/23 02:01:43;;;;;;;35.90;16.33;;;;;;;;;;4983953;28;21530;-64
2021/01/23 02:04:21;;;;;;;34.53;14.98;;;;;;;;;;4986365;28;20026;-64
2021/01/23 02:07:07;;;;;;;38.60;15.95;;;;;;;;;;4986579;28;20022;-63
2021/01/23 02:09:45;;;;;;;33.85;15.65;;;;;;;;;;4986295;28;20052;-64
2021/01/23 02:15:17;;;;;;;36.80;15.68;;;;;;;;;;4983780;28;20646;-63
2021/01/23 02:17:56;;;;;;;48.70;17.88;;;;;;;;;;4987890;28;20113;-63
2021/01/23 02:20:47;;;;;;;49.42;16.77;;;;;;;;;;4985171;28;20671;-62
2021/01/23 02:23:16;;;;;;;40.72;16.73;;;;;;;;;;4987928;28;20224;-64
2021/01/23 02:25:58;;;;;;;35.45;15.13;;;;;;;;;;4983833;28;20374;-62
2021/01/23 02:28:45;;;;;;;42.42;16.00;;;;;;;;;;4986727;28;20042;-62
2021/01/23 02:31:15;;;;;;;39.97;17.17;;;;;;;;;;4983048;28;20074;-62
2021/01/23 02:33:41;;;;;;;39.40;16.70;;;;;;;;;;4972523;28;20069;-63
2021/01/23 02:36:08;;;;;;;38.47;18.10;;;;;;;;;;4986649;28;20105;-64
2021/01/23 02:38:34;;;;;;;30.88;15.55;;;;;;;;;;4987272;28;20025;-62
2021/01/23 02:41:05;;;;;;;52.45;18.63;;;;;;;;;;4985137;28;20450;-64
2021/01/23 02:43:31;;;;;;;40.50;17.75;;;;;;;;;;4987191;28;20030;-63
2021/01/23 02:45:58;;;;;;;43.15;17.08;;;;;;;;;;4988096;28;20026;-63
2021/01/23 02:48:27;;;;;;;34.30;15.13;;;;;;;;;;4985276;28;20038;-63
2021/01/23 02:51:01;;;;;;;36.90;16.38;;;;;;;;;;4985302;28;20096;-63
2021/01/23 02:53:31;;;;;;;41.55;17.33;;;;;;;;;;4984512;28;20559;-63
2021/01/23 02:56:06;;;;;;;42.60;16.02;;;;;;;;;;4985912;28;20055;-64
2021/01/23 02:58:35;;;;;;;49.00;17.48;;;;;;;;;;4983229;28;20490;-63
2021/01/23 03:01:07;;;;;;;49.47;18.35;;;;;;;;;;4985203;28;20100;-65
2021/01/23 03:03:36;;;;;;;38.88;17.98;;;;;;;;;;4968735;28;20063;-63
2021/01/23 03:06:03;;;;;;;44.20;17.05;;;;;;;;;;4983665;28;20160;-62
2021/01/23 03:08:30;;;;;;;34.63;17.55;;;;;;;;;;4986190;28;20128;-63
2021/01/23 03:11:01;;;;;;;38.67;17.17;;;;;;;;;;4985315;28;20049;-62
2021/01/23 03:13:27;;;;;;;31.73;14.90;;;;;;;;;;4980127;28;20061;-64
2021/01/23 03:15:57;;;;;;;35.80;15.40;;;;;;;;;;4964807;28;20026;-64
2021/01/23 03:18:22;;;;;;;45.55;18.70;;;;;;;;;;4972416;28;20025;-64
2021/01/23 03:20:48;;;;;;;38.85;16.88;;;;;;;;;;4985784;28;20347;-63
2021/01/23 03:23:18;;;;;;;43.47;18.67;;;;;;;;;;4980006;28;20057;-63
2021/01/23 03:25:44;;;;;;;41.08;17.17;;;;;;;;;;4982750;28;20655;-63
2021/01/23 03:28:16;;;;;;;46.10;19.63;;;;;;;;;;4984477;28;20383;-63
2021/01/23 03:30:42;;;;;;;45.20;17.95;;;;;;;;;;4977498;28;20044;-62
2021/01/23 03:33:10;;;;;;;40.70;19.20;;;;;;;;;;4985516;28;20084;-63
2021/01/23 03:35:38;;;;;;;41.95;17.77;;;;;;;;;;4969127;28;20048;-64
2021/01/23 03:38:06;;;;;;;38.38;17.70;;;;;;;;;;4983266;28;20477;-63
2021/01/23 03:40:36;;;;;;;44.03;19.67;;;;;;;;;;4980646;28;20030;-63
2021/01/23 03:43:05;;;;;;;49.15;18.63;;;;;;;;;;4982178;28;20061;-63
2021/01/23 03:45:30;;;;;;;54.60;19.70;;;;;;;;;;4966862;28;20042;-62
2021/01/23 03:47:55;;;;;;;47.22;20.45;;;;;;;;;;4986191;28;20216;-63
2021/01/23 03:50:22;;;;;;;44.00;19.75;;;;;;;;;;4980919;28;20839;-63
2021/01/23 03:52:49;;;;;;;43.85;18.17;;;;;;;;;;4981099;28;20041;-63
2021/01/23 03:55:18;;;;;;;43.90;18.98;;;;;;;;;;4969538;28;20149;-63
2021/01/23 03:57:43;;;;;;;40.22;18.40;;;;;;;;;;4982803;28;20029;-63
2021/01/23 04:00:09;;;;;;;40.42;19.13;;;;;;;;;;4985042;28;20148;-63
2021/01/23 04:02:34;;;;;;;41.72;17.33;;;;;;;;;;4983015;28;20068;-63
2021/01/23 04:05:03;;;;;;;41.20;18.63;;;;;;;;;;4965978;28;20034;-63
2021/01/23 04:07:31;;;;;;;46.95;19.83;;;;;;;;;;4968312;28;20203;-63
2021/01/23 04:10:01;;;;;;;41.60;19.65;;;;;;;;;;4985148;28;20682;-63
2021/01/23 04:12:29;;;;;;;39.53;17.08;;;;;;;;;;4983370;28;20043;-63
2021/01/23 04:14:57;;;;;;;53.05;20.10;;;;;;;;;;4949653;28;20061;-62
2021/01/23 04:17:23;;;;;;;48.08;19.63;;;;;;;;;;4969738;28;20147;-64
2021/01/23 04:19:49;;;;;;;37.38;17.70;;;;;;;;;;4980015;28;20026;-65
2021/01/23 04:22:14;;;;;;;45.15;18.55;;;;;;;;;;4947010;28;20041;-63
2021/01/23 04:24:40;;;;;;;40.03;18.92;;;;;;;;;;4983141;28;20058;-63
2021/01/23 04:27:05;;;;;;;36.70;18.00;;;;;;;;;;4981383;28;20588;-63
2021/01/23 04:29:33;;;;;;;47.13;18.27;;;;;;;;;;4983622;28;20049;-63
2021/01/23 04:31:59;;;;;;;38.42;17.50;;;;;;;;;;4980091;28;20037;-63
2021/01/23 04:34:25;;;;;;;42.65;18.95;;;;;;;;;;4981126;28;20400;-63
2021/01/23 04:36:50;;;;;;;35.20;17.65;;;;;;;;;;4986054;28;20026;-63
2021/01/23 04:39:18;;;;;;;45.63;18.90;;;;;;;;;;4965929;28;20028;-63
2021/01/23 04:41:46;;;;;;;36.13;16.90;;;;;;;;;;4969796;28;20485;-62
2021/01/23 04:44:11;;;;;;;42.05;18.85;;;;;;;;;;4987510;28;20091;-62
2021/01/23 04:46:37;;;;;;;32.22;16.55;;;;;;;;;;4987914;28;20037;-63
2021/01/23 04:49:03;;;;;;;49.47;16.63;;;;;;;;;;4988265;28;20401;-63
2021/01/23 04:51:28;;;;;;;36.33;15.18;;;;;;;;;;4986185;28;20043;-62
2021/01/23 04:53:59;;;;;;;31.83;15.43;;;;;;;;;;4980588;28;20544;-63
2021/01/23 04:56:25;;;;;;;33.83;15.25;;;;;;;;;;4986719;28;20091;-63
2021/01/23 04:58:51;;;;;;;34.08;16.13;;;;;;;;;;4985883;28;20030;-63
2021/01/23 05:01:16;;;;;;;34.08;16.67;;;;;;;;;;4987006;28;20018;-63
2021/01/23 05:03:58;;;;;;;36.60;14.15;;;;;;;;;;4985889;28;20085;-63
2021/01/23 05:06:27;;;;;;;35.13;16.00;;;;;;;;;;4971263;28;20033;-62
2021/01/23 05:08:56;;;;;;;36.92;14.93;;;;;;;;;;4987972;28;20116;-62
2021/01/23 05:11:21;;;;;;;33.25;14.85;;;;;;;;;;4986947;28;20064;-63
2021/01/23 05:14:10;;;;;;;33.05;13.75;;;;;;;;;;4982844;28;20122;-62
2021/01/23 05:17:07;;;;;;;29.27;14.70;;;;;;;;;;4987853;28;20139;-63
2021/01/23 05:19:40;;;;;;;27.80;14.65;;;;;;;;;;4987259;28;20030;-64
2021/01/23 05:22:08;;;;;;;29.15;13.88;;;;;;;;;;4986660;28;21737;-63
2021/01/23 05:24:49;;;;;;;28.35;14.50;;;;;;;;;;4986599;28;22258;-62
2021/01/23 05:27:14;;;;;;;31.27;14.48;;;;;;;;;;4983705;28;20049;-62
2021/01/23 05:29:56;;;;;;;35.85;13.07;;;;;;;;;;4982005;28;20029;-62
2021/01/23 05:32:24;;;;;;;30.92;13.80;;;;;;;;;;4987323;28;20092;-61
2021/01/23 05:34:50;;;;;;;26.10;12.80;;;;;;;;;;4986862;28;20561;-61
2021/01/23 05:37:31;;;;;;;31.25;14.05;;;;;;;;;;4984829;28;20079;-62
2021/01/23 05:39:59;;;;;;;23.02;13.27;;;;;;;;;;4984818;28;20104;-62
2021/01/23 05:42:25;;;;;;;29.10;12.30;;;;;;;;;;4985945;28;20416;-61
2021/01/23 05:45:04;;;;;;;28.25;13.30;;;;;;;;;;4987854;28;20029;-62
2021/01/23 05:47:32;;;;;;;26.85;12.98;;;;;;;;;;4986970;28;20194;-61
2021/01/23 05:49:58;;;;;;;19.40;12.30;;;;;;;;;;4986906;28;20105;-60
2021/01/23 05:52:38;;;;;;;25.55;12.15;;;;;;;;;;4987185;28;20037;-61
2021/01/23 05:55:05;;;;;;;29.20;12.50;;;;;;;;;;4986289;28;20507;-61
2021/01/23 05:57:32;;;;;;;23.42;12.95;;;;;;;;;;4988869;28;20025;-60
2021/01/23 05:59:58;;;;;;;22.73;12.68;;;;;;;;;;4988936;28;20037;-60
2021/01/23 06:02:24;;;;;;;23.15;12.20;;;;;;;;;;4984485;28;20037;-60
2021/01/23 06:04:52;;;;;;;24.63;13.07;;;;;;;;;;4988533;28;20480;-60
2021/01/23 06:07:42;;;;;;;22.67;11.57;;;;;;;;;;4979453;28;20030;-60
2021/01/23 06:10:28;;;;;;;24.88;12.45;;;;;;;;;;4985535;28;22129;-62
2021/01/23 06:12:54;;;;;;;22.95;12.40;;;;;;;;;;4969719;28;20062;-60
2021/01/23 06:15:34;;;;;;;25.27;11.25;;;;;;;;;;4970773;28;20038;-59
2021/01/23 06:18:03;;;;;;;24.02;12.23;;;;;;;;;;4983881;28;20782;-61
2021/01/23 06:20:41;;;;;;;26.02;12.07;;;;;;;;;;4988743;28;20065;-59
2021/01/23 06:23:09;;;;;;;25.08;12.60;;;;;;;;;;4987163;28;20050;-61
2021/01/23 06:25:49;;;;;;;27.33;12.85;;;;;;;;;;4983761;28;20124;-60
2021/01/23 06:28:17;;;;;;;24.20;13.27;;;;;;;;;;4984388;28;20037;-61
2021/01/23 06:30:45;;;;;;;31.08;13.88;;;;;;;;;;4984323;28;20540;-60
2021/01/23 06:33:22;;;;;;;26.15;13.13;;;;;;;;;;4983289;28;20026;-61
2021/01/23 06:36:06;;;;;;;25.23;13.05;;;;;;;;;;4986046;28;20188;-61
2021/01/23 06:38:34;;;;;;;20.95;12.00;;;;;;;;;;4987414;28;20037;-60
2021/01/23 06:41:18;;;;;;;29.55;12.93;;;;;;;;;;4984429;28;20062;-61
2021/01/23 06:44:05;;;;;;;25.05;12.32;;;;;;;;;;4979181;28;20070;-60
2021/01/23 06:46:31;;;;;;;33.20;14.10;;;;;;;;;;4985044;28;20034;-60
2021/01/23 06:49:04;;;;;;;21.58;12.70;;;;;;;;;;4968320;28;20064;-61
2021/01/23 06:51:34;;;;;;;25.05;12.57;;;;;;;;;;4987894;28;20046;-60
2021/01/23 06:54:10;;;;;;;24.88;13.82;;;;;;;;;;4982934;28;21065;-60
2021/01/23 06:56:54;;;;;;;27.13;13.00;;;;;;;;;;4969602;28;20029;-61
2021/01/23 07:02:33;;;;;;;22.35;13.55;;;;;;;;;;4981208;28;20033;-59
2021/01/23 07:05:05;;;;;;;25.10;13.80;;;;;;;;;;4983242;28;20057;-59
2021/01/23 07:07:39;;;;;;;27.80;14.98;;;;;;;;;;4985876;28;20049;-59
2021/01/23 07:10:14;;;;;;;33.75;13.20;;;;;;;;;;4983433;28;20052;-59
2021/01/23 07:12:42;;;;;;;;;;;;;;;;;;4986940;28;20128;-59
2021/01/23 07:15:14;;;;;;;26.65;12.95;;;;;;;;;;4985719;28;20322;-61
2021/01/23 07:17:43;;;;;;;24.98;12.25;;;;;;;;;;4985766;28;20117;-60
2021/01/23 07:20:17;;;;;;;28.10;14.05;;;;;;;;;;4967428;28;20289;-60
2021/01/23 07:22:45;;;;;;;25.35;12.45;;;;;;;;;;4982700;28;20038;-60
2021/01/23 07:25:12;;;;;;;22.15;11.98;;;;;;;;;;4986785;28;20057;-60
2021/01/23 07:27:43;;;;;;;26.95;14.10;;;;;;;;;;4984729;28;20037;-60
2021/01/23 07:30:12;;;;;;;26.90;13.35;;;;;;;;;;4984428;28;20026;-60
2021/01/23 07:36:32;;;;;;;25.40;12.63;;;;;;;;;;4983902;28;20107;-59
2021/01/23 07:39:17;;;;;;;25.08;13.00;;;;;;;;;;4984163;28;20499;-61
2021/01/23 07:41:47;;;;;;;27.55;13.70;;;;;;;;;;4979694;28;20520;-59
2021/01/23 07:44:16;;;;;;;29.95;15.40;;;;;;;;;;4981567;28;20040;-60
2021/01/23 07:46:42;;;;;;;25.98;13.70;;;;;;;;;;4981109;28;20374;-61
2021/01/23 07:49:09;;;;;;;27.38;14.00;;;;;;;;;;4982322;28;20037;-60
2021/01/23 07:51:46;;;;;;;27.27;12.90;;;;;;;;;;4987005;28;20044;-60
2021/01/23 07:54:13;;;;;;;27.52;12.90;;;;;;;;;;4981378;28;20238;-60
2021/01/23 07:56:54;;;;;;;29.88;14.38;;;;;;;;;;4982704;28;20034;-60
2021/01/23 07:59:44;;;;;;;25.27;14.02;;;;;;;;;;4982123;28;20187;-60
2021/01/23 08:02:09;;;;;;;22.75;12.10;;;;;;;;;;4964683;28;20034;-60
2021/01/23 08:04:36;;;;;;;23.15;13.20;;;;;;;;;;4960772;28;20026;-59
2021/01/23 08:07:17;;;;;;;23.13;12.73;;;;;;;;;;4977603;28;20037;-60
2021/01/23 08:09:44;;;;;;;30.35;13.20;;;;;;;;;;4983592;28;20085;-60
2021/01/23 08:12:19;;;;;;;27.52;15.48;;;;;;;;;;4985261;28;20128;-61
2021/01/23 08:15:09;;;;;;;27.42;13.65;;;;;;;;;;4985534;28;20509;-60
2021/01/23 08:17:41;;;;;;;27.08;13.45;;;;;;;;;;4984201;28;20385;-60
2021/01/23 08:20:15;;;;;;;29.05;13.80;;;;;;;;;;4980426;28;20014;-61
2021/01/23 08:22:58;;;;;;;28.02;13.57;;;;;;;;;;4985397;28;20187;-60
2021/01/23 08:25:27;;;;;;;28.67;13.40;;;;;;;;;;4959890;28;20042;-59
2021/01/23 08:27:52;;;;;;;23.30;11.70;;;;;;;;;;4942546;28;20102;-59
2021/01/23 08:33:56;;;;;;;26.73;12.48;;;;;;;;;;4961972;28;20474;-61
2021/01/23 08:36:26;;;;;;;30.10;12.02;;;;;;;;;;4959759;28;20050;-61
2021/01/23 08:38:55;;;;;;;21.20;12.07;;;;;;;;;;4947412;28;20030;-61
2021/01/23 08:41:33;;;;;;;18.95;10.93;;;;;;;;;;4952531;28;20140;-59
2021/01/23 08:51:09;;;;;;;20.10;11.07;;;;;;;;;;4958353;28;20574;-59
2021/01/23 08:53:44;;;;;;;20.52;11.13;;;;;;;;;;4959697;28;20286;-60
2021/01/23 08:59:32;;;;;;;24.42;11.50;;;;;;;;;;4958630;28;20024;-59
2021/01/23 09:05:53;;;;;;;23.45;11.95;;;;;;;;;;4962013;28;20470;-60
2021/01/23 09:08:48;;;;;;;22.33;11.50;;;;;;;;;;4956863;28;20054;-60
2021/01/23 09:14:50;;;;;;;24.23;9.82;;;;;;;;;;4954738;28;20041;-60
2021/01/23 09:17:18;;;;;;;22.52;10.43;;;;;;;;;;4962812;28;20030;-60
2021/01/23 09:19:43;;;;;;;25.40;11.82;;;;;;;;;;4962872;28;20383;-60
2021/01/23 09:22:12;;;;;;;22.80;10.10;;;;;;;;;;4963813;28;20038;-60
2021/01/23 09:25:31;;;;;;;24.80;11.20;;;;;;;;;;4974600;28;20109;-61
2021/01/23 09:28:35;;;;;;;21.85;9.98;;;;;;;;;;4983857;28;20754;-61
2021/01/23 09:31:00;;;;;;;19.20;10.82;;;;;;;;;;4988930;28;20046;-61
2021/01/23 09:33:26;;;;;;;19.63;10.68;;;;;;;;;;4985008;28;20128;-60
2021/01/23 09:35:52;;;;;;;21.05;10.52;;;;;;;;;;4985535;28;20618;-62
2021/01/23 09:38:18;;;;;;;18.63;9.50;;;;;;;;;;4980915;28;20317;-61
2021/01/23 09:40:46;;;;;;;22.88;10.10;;;;;;;;;;4986548;28;20030;-60
2021/01/23 09:43:11;;;;;;;26.05;11.05;;;;;;;;;;4987039;28;20482;-62
2021/01/23 09:45:37;;;;;;;23.23;11.35;;;;;;;;;;4984254;28;20121;-60
2021/01/23 09:48:05;;;;;;;23.80;10.02;;;;;;;;;;4977997;28;20057;-61
2021/01/23 09:54:24;;;;;;;18.98;8.60;;;;;;;;;;4987907;28;20040;-61
2021/01/23 09:57:05;;;;;;;15.82;8.88;;;;;;;;;;4980412;28;20042;-60
2021/01/23 09:59:42;;;;;;;19.73;9.93;;;;;;;;;;4985509;28;20026;-61
2021/01/23 10:02:08;;;;;;;22.08;10.07;;;;;;;;;;4985729;28;20065;-61
2021/01/23 10:04:41;;;;;;;21.58;9.43;;;;;;;;;;4985782;28;20502;-60
2021/01/23 10:07:08;;;;;;;21.33;10.90;;;;;;;;;;4981193;28;20034;-60
2021/01/23 10:09:34;;;;;;;18.13;9.88;;;;;;;;;;4982522;28;20401;-61
2021/01/23 10:12:19;;;;;;;17.75;9.93;;;;;;;;;;4986862;28;20041;-60
2021/01/23 10:14:47;;;;;;;15.32;8.88;;;;;;;;;;4986233;28;20034;-61
2021/01/23 10:17:13;;;;;;;18.13;9.23;;;;;;;;;;4966110;28;20529;-62
2021/01/23 10:19:39;;;;;;;15.98;8.85;;;;;;;;;;4983994;28;20029;-60
2021/01/23 10:22:10;;;;;;;20.42;10.05;;;;;;;;;;4963942;28;20045;-61
2021/01/23 10:24:43;;;;;;;16.48;8.80;;;;;;;;;;4988097;28;20041;-61
2021/01/23 10:27:11;;;;;;;17.77;8.70;;;;;;;;;;4974217;28;21383;-62
2021/01/23 10:29:37;;;;;;;14.43;8.50;;;;;;;;;;4968542;28;20037;-60
2021/01/23 10:32:05;;;;;;;17.50;9.10;;;;;;;;;;4985236;28;20069;-61
2021/01/23 10:34:33;;;;;;;19.40;9.30;;;;;;;;;;4984736;28;20448;-61
2021/01/23 10:37:22;;;;;;;16.13;9.02;;;;;;;;;;4960493;28;20169;-62
2021/01/23 10:39:48;;;;;;;19.58;8.82;;;;;;;;;;4980512;28;20072;-61
2021/01/23 10:42:34;;;;;;;14.52;8.07;;;;;;;;;;4986945;28;20465;-62
2021/01/23 10:45:00;;;;;;;17.92;8.35;;;;;;;;;;4985888;28;21026;-62
2021/01/23 10:47:27;;;;;;;19.17;8.90;;;;;;;;;;4987065;28;20232;-62
2021/01/23 10:49:53;;;;;;;16.10;8.82;;;;;;;;;;4986173;28;20072;-62
2021/01/23 10:52:23;;;;;;;12.82;7.82;;;;;;;;;;4966053;28;20096;-62
2021/01/23 10:54:51;;;;;;;16.08;7.63;;;;;;;;;;4963974;28;20038;-61
2021/01/23 10:57:17;;;;;;;15.40;8.57;;;;;;;;;;4975847;28;20265;-62
2021/01/23 10:59:42;;;;;;;13.13;7.90;;;;;;;;;;4968831;28;20719;-63
2021/01/23 11:02:15;;;;;;;17.13;7.55;;;;;;;;;;4979554;28;20033;-62
2021/01/23 11:05:08;;;;;;;11.95;7.18;;;;;;;;;;4983786;28;20048;-62
2021/01/23 11:07:34;;;;;;;14.82;7.25;;;;;;;;;;4983620;28;20037;-62
2021/01/23 11:10:15;;;;;;;13.13;7.55;;;;;;;;;;4962358;28;20688;-63
2021/01/23 11:12:43;;;;;;;10.80;6.65;;;;;;;;;;4984260;28;20048;-62
2021/01/23 11:15:11;;;;;;;15.20;8.25;;;;;;;;;;4968595;28;20095;-63
2021/01/23 11:18:01;;;;;;;16.50;8.02;;;;;;;;;;4966970;28;20034;-63
2021/01/23 11:20:27;;;;;;;15.55;7.30;;;;;;;;;;4968440;28;20037;-66
2021/01/23 11:22:55;;;;;;;11.18;6.32;;;;;;;;;;4979250;28;20041;-63
2021/01/23 11:25:23;;;;;;;13.98;7.05;;;;;;;;;;4963410;28;20139;-64
2021/01/23 11:27:52;;;;;;;17.05;7.55;;;;;;;;;;4960209;28;20134;-62
2021/01/23 11:30:18;;;;;;;13.25;5.80;;;;;;;;;;4959925;28;20038;-64
2021/01/23 11:32:46;;;;;;;10.88;6.53;;;;;;;;;;4948758;28;20043;-61
2021/01/23 11:35:11;;;;;;;8.15;4.63;;;;;;;;;;4966747;28;20202;-62
2021/01/23 11:37:38;;;;;;;7.93;3.80;;;;;;;;;;4961434;28;20483;-62
2021/01/23 11:40:04;;;;;;;11.35;4.63;;;;;;;;;;4960960;28;20223;-63
2021/01/23 11:42:32;;;;;;;10.88;5.95;;;;;;;;;;4964028;28;20531;-63
2021/01/23 11:44:57;;;;;;;14.43;6.38;;;;;;;;;;4944148;28;20030;-63
2021/01/23 11:47:42;;;;;;;10.80;6.18;;;;;;;;;;4963527;28;20521;-64
2021/01/23 11:50:08;;;;;;;12.40;6.82;;;;;;;;;;4964811;28;20030;-63
2021/01/23 11:52:52;;;;;;;13.13;7.53;;;;;;;;;;4941650;28;20650;-62
2021/01/23 11:55:21;;;;;;;9.68;5.78;;;;;;;;;;4963672;28;20030;-62
2021/01/23 11:57:51;;;;;;;12.23;6.78;;;;;;;;;;4960470;28;20106;-63
2021/01/23 12:03:58;;;;;;;9.85;5.05;;;;;;;;;;4963437;28;20217;-63
2021/01/23 12:06:24;;;;;;;11.05;4.30;;;;;;;;;;4945924;28;20200;-62
2021/01/23 12:08:55;;;;;;;5.70;4.30;;;;;;;;;;4963715;28;20045;-63
2021/01/23 12:11:23;;;;;;;5.07;3.65;;;;;;;;;;4959529;28;20175;-64
2021/01/23 12:13:48;;;;;;;6.03;3.60;;;;;;;;;;4962809;28;20038;-63
2021/01/23 12:19:52;;;;;;;5.45;3.17;;;;;;;;;;4965381;28;20024;-63
2021/01/23 12:22:36;;;;;;;6.28;3.17;;;;;;;;;;4945218;28;20038;-62
2021/01/23 12:25:03;;;;;;;3.27;2.40;;;;;;;;;;4953650;28;20073;-63
2021/01/23 12:27:29;;;;;;;4.65;2.25;;;;;;;;;;4981953;28;20084;-62
2021/01/23 12:29:54;;;;;;;4.20;1.80;;;;;;;;;;4959438;28;20446;-63
2021/01/23 12:32:19;;;;;;;4.20;1.88;;;;;;;;;;4977211;28;20057;-63
2021/01/23 12:34:45;;;;;;;12.40;2.13;;;;;;;;;;4964571;28;20030;-63
2021/01/23 12:37:10;;;;;;;2.45;1.88;;;;;;;;;;4978475;28;20052;-63
2021/01/23 12:39:58;;;;;;;7.93;1.98;;;;;;;;;;4984866;28;20037;-64
2021/01/23 12:42:26;;;;;;;3.03;2.03;;;;;;;;;;4978354;28;20519;-64
2021/01/23 12:44:59;;;;;;;4.53;2.97;;;;;;;;;;4983226;28;20034;-64
2021/01/23 12:47:28;;;;;;;3.45;1.70;;;;;;;;;;4980919;28;20076;-64
2021/01/23 12:49:53;;;;;;;7.15;2.17;;;;;;;;;;4958744;28;20923;-64
2021/01/23 12:52:52;;;;;;;4.90;1.27;;;;;;;;;;4982924;28;20037;-64
2021/01/23 12:55:23;;;;;;;5.03;1.88;;;;;;;;;;4986118;28;20505;-64
2021/01/23 12:57:48;;;;;;;5.57;2.03;;;;;;;;;;4987856;28;20064;-64
2021/01/23 13:00:15;;;;;;;4.35;1.58;;;;;;;;;;4965347;28;20473;-65
2021/01/23 13:02:42;;;;;;;3.30;1.55;;;;;;;;;;4969008;28;20040;-64
2021/01/23 13:05:32;;;;;;;2.05;1.75;;;;;;;;;;4983153;28;20064;-64
2021/01/23 13:07:57;;;;;;;1.70;1.52;;;;;;;;;;4987861;28;20038;-65
2021/01/23 13:10:25;;;;;;;5.75;1.88;;;;;;;;;;4987369;28;21020;-65
2021/01/23 13:12:51;;;;;;;5.15;2.15;;;;;;;;;;4979609;28;20034;-66
2021/01/23 13:15:20;;;;;;;2.20;1.45;;;;;;;;;;4960561;28;20041;-64
2021/01/23 13:17:46;;;;;;;3.72;1.48;;;;;;;;;;4988264;28;20479;-66
2021/01/23 13:20:13;;;;;;;4.05;1.77;;;;;;;;;;4979949;28;20029;-65
2021/01/23 13:22:40;;;;;;;2.42;1.50;;;;;;;;;;4982073;28;20482;-64
2021/01/23 13:25:07;;;;;;;3.25;1.38;;;;;;;;;;4980352;28;20090;-65
2021/01/23 13:27:34;;;;;;;1.65;1.50;;;;;;;;;;4986727;28;20026;-64
2021/01/23 13:30:00;;;;;;;3.17;1.85;;;;;;;;;;4969276;28;20077;-63
2021/01/23 13:32:25;;;;;;;1.55;1.35;;;;;;;;;;4984160;28;20116;-64
2021/01/23 13:34:53;;;;;;;4.13;2.25;;;;;;;;;;4967434;28;20041;-63
2021/01/23 13:37:21;;;;;;;3.42;2.53;;;;;;;;;;4986786;28;20045;-64
2021/01/23 13:39:47;;;;;;;6.20;3.42;;;;;;;;;;4977859;28;20058;-64
2021/01/23 13:42:15;;;;;;;4.50;2.42;;;;;;;;;;4981527;28;20038;-64
2021/01/23 13:44:42;;;;;;;7.35;2.28;;;;;;;;;;4984451;28;20386;-64
2021/01/23 13:47:11;;;;;;;1.80;1.10;;;;;;;;;;4978128;28;20605;-64
2021/01/23 13:49:36;;;;;;;6.60;1.52;;;;;;;;;;4987159;28;20045;-65
2021/01/23 13:52:04;;;;;;;3.22;1.52;;;;;;;;;;4983369;28;20744;-65
2021/01/23 13:54:38;;;;;;;3.28;1.58;;;;;;;;;;4962428;28;20042;-66
2021/01/23 14:00:39;;;;;;;2.47;1.45;;;;;;;;;;4979384;28;20024;-67
2021/01/23 14:03:07;;;;;;;1.67;1.25;;;;;;;;;;4965260;28;20108;-68
2021/01/23 14:05:37;;;;;;;2.28;1.40;;;;;;;;;;4967743;28;20033;-65
2021/01/23 14:08:05;;;;;;;5.22;1.48;;;;;;;;;;4986717;28;20114;-66
2021/01/23 14:10:33;;;;;;;6.25;1.90;;;;;;;;;;4984934;28;20143;-65
2021/01/23 14:13:04;;;;;;;3.33;1.95;;;;;;;;;;4984948;28;20102;-66
2021/01/23 14:15:39;;;;;;;3.15;1.70;;;;;;;;;;4978761;28;20695;-66
2021/01/23 14:18:07;;;;;;;3.65;1.92;;;;;;;;;;4983818;28;20469;-66
2021/01/23 14:20:36;;;;;;;3.42;2.00;;;;;;;;;;4987099;28;20029;-67
2021/01/23 14:23:04;;;;;;;5.45;1.80;;;;;;;;;;4984261;28;20034;-65
2021/01/23 14:25:37;;;;;;;2.95;1.63;;;;;;;;;;4979017;28;20046;-66
2021/01/23 14:28:13;;;;;;;2.38;1.80;;;;;;;;;;4981809;28;20052;-67
2021/01/23 14:30:41;;;;;;;7.47;2.20;;;;;;;;;;4984591;28;20504;-67
2021/01/23 14:33:06;;;;;;;2.95;1.65;;;;;;;;;;4982148;28;20037;-67
2021/01/23 14:35:32;;;;;;;5.72;2.17;;;;;;;;;;4975678;28;20422;-66
2021/01/23 14:37:58;;;;;;;5.60;1.75;;;;;;;;;;4985597;28;20227;-67
2021/01/23 14:40:24;;;;;;;4.22;1.58;;;;;;;;;;4986331;28;21591;-65
2021/01/23 14:42:51;;;;;;;1.85;1.55;;;;;;;;;;4966473;28;20026;-66
2021/01/23 14:45:19;;;;;;;6.65;1.85;;;;;;;;;;4964328;28;20037;-66
2021/01/23 14:47:47;;;;;;;3.22;2.25;;;;;;;;;;4986576;28;20029;-65
2021/01/23 14:50:13;;;;;;;3.58;1.98;;;;;;;;;;4987693;28;20395;-66
2021/01/23 14:52:39;;;;;;;8.45;2.15;;;;;;;;;;4985001;28;20043;-67
2021/01/23 14:55:09;;;;;;;4.35;1.98;;;;;;;;;;4986722;28;20068;-66
2021/01/23 14:57:39;;;;;;;4.47;1.95;;;;;;;;;;4985598;28;20056;-66
2021/01/23 15:00:20;;;;;;;3.80;2.55;;;;;;;;;;4984492;28;20039;-66
2021/01/23 15:02:48;;;;;;;7.13;2.17;;;;;;;;;;4965765;28;20033;-66
2021/01/23 15:05:18;;;;;;;4.60;2.67;;;;;;;;;;4983340;28;20030;-66
2021/01/23 15:07:43;;;;;;;3.97;2.42;;;;;;;;;;4984028;28;20464;-66
2021/01/23 15:10:09;;;;;;;5.13;3.05;;;;;;;;;;4985856;28;20034;-65
2021/01/23 15:12:35;;;;;;;4.22;2.03;;;;;;;;;;4970589;28;20724;-68
2021/01/23 15:15:04;;;;;;;3.45;2.05;;;;;;;;;;4981928;28;20133;-66
2021/01/23 15:17:29;;;;;;;5.22;2.13;;;;;;;;;;4982839;28;20034;-67
2021/01/23 15:20:00;;;;;;;7.68;2.30;;;;;;;;;;4985712;28;20101;-67
2021/01/23 15:22:26;;;;;;;3.22;1.88;;;;;;;;;;4985666;28;20441;-68
2021/01/23 15:24:51;;;;;;;3.92;1.80;;;;;;;;;;4982782;28;20598;-67
2021/01/23 15:27:28;;;;;;;3.95;2.00;;;;;;;;;;4980940;28;21517;-67
2021/01/23 15:29:56;;;;;;;2.70;1.63;;;;;;;;;;4971704;28;21961;-67